createdAt,value
2018-05-02T00:00:03.001Z,40.84
2018-05-02T00:01:02.983Z,41.22
2018-05-02T00:02:05.806Z,40.94
2018-05-02T00:03:03.039Z,41.03
2018-05-02T00:04:03.041Z,40.55
2018-05-02T00:05:03.079Z,41.7
2018-05-02T00:06:02.826Z,41.61
2018-05-02T00:07:03.125Z,41.41
2018-05-02T00:08:02.844Z,41.51
2018-05-02T00:09:02.854Z,41.32
2018-05-02T00:10:03.191Z,41.68
2018-05-02T00:11:03.190Z,41.61
2018-05-02T00:12:02.932Z,41.39
2018-05-02T00:13:02.936Z,41.51
2018-05-02T00:14:02.987Z,41.68
2018-05-02T00:15:03.263Z,41.68
2018-05-02T00:16:03.268Z,41.97
2018-05-02T00:17:03.282Z,41.87
2018-05-02T00:18:03.445Z,41.97
2018-05-02T00:19:03.340Z,41.78
2018-05-02T00:20:03.075Z,41.87
2018-05-02T00:21:03.402Z,41.87
2018-05-02T00:22:03.117Z,41.78
2018-05-02T00:23:03.413Z,42.07
2018-05-02T00:24:03.434Z,42.07
2018-05-02T00:25:03.452Z,41.78
2018-05-02T00:26:03.197Z,42.07
2018-05-02T00:27:03.481Z,42.16
2018-05-02T00:28:03.511Z,42.16
2018-05-02T00:29:03.528Z,42.25
2018-05-02T00:30:03.541Z,42.25
2018-05-02T00:31:03.549Z,42.25
2018-05-02T00:32:03.590Z,42.16
2018-05-02T00:33:03.584Z,42.16
2018-05-02T00:34:03.362Z,42.07
2018-05-02T00:35:03.645Z,42.54
2018-05-02T00:36:03.418Z,41.87
2018-05-02T00:37:03.675Z,42.35
2018-05-02T00:38:03.412Z,42.16
2018-05-02T00:39:03.707Z,42.35
2018-05-02T00:40:03.452Z,42.44
2018-05-02T00:41:03.456Z,42.44
2018-05-02T00:42:03.514Z,42.44
2018-05-02T00:43:03.806Z,42.54
2018-05-02T00:44:03.802Z,42.44
2018-05-02T00:45:03.905Z,42.64
2018-05-02T00:46:03.613Z,43.02
2018-05-02T00:47:03.864Z,42.73
2018-05-02T00:48:03.618Z,43.02
2018-05-02T00:49:03.609Z,42.71
2018-05-02T00:50:03.929Z,43
2018-05-02T00:51:04.063Z,43.19
2018-05-02T00:52:03.676Z,43.19
2018-05-02T00:53:03.964Z,42.9
2018-05-02T00:54:03.976Z,43.19
2018-05-02T00:55:04.022Z,43.66
2018-05-02T00:56:04.065Z,42.9
2018-05-02T00:57:03.758Z,43.38
2018-05-02T00:58:04.060Z,43
2018-05-02T00:59:04.070Z,43.38
2018-05-02T01:00:04.094Z,42.81
2018-05-02T01:01:04.106Z,42.71
2018-05-02T01:02:03.858Z,43
2018-05-02T01:03:03.875Z,43.19
2018-05-02T01:04:04.182Z,43.19
2018-05-02T01:05:04.191Z,43.38
2018-05-02T01:06:04.212Z,43.57
2018-05-02T01:07:04.220Z,43.57
2018-05-02T01:08:04.233Z,43.48
2018-05-02T01:09:04.259Z,43.48
2018-05-02T01:10:04.273Z,43.57
2018-05-02T01:11:04.356Z,43.76
2018-05-02T01:12:04.310Z,43.38
2018-05-02T01:13:04.049Z,43.66
2018-05-02T01:14:04.086Z,43.57
2018-05-02T01:15:04.372Z,43.38
2018-05-02T01:16:04.553Z,44.15
2018-05-02T01:17:04.124Z,43.86
2018-05-02T01:18:04.145Z,43.86
2018-05-02T01:19:04.460Z,43.95
2018-05-02T01:20:04.476Z,43.95
2018-05-02T01:21:04.473Z,43.86
2018-05-02T01:22:04.229Z,44.05
2018-05-02T01:23:04.510Z,43.76
2018-05-02T01:24:04.265Z,43.95
2018-05-02T01:25:04.283Z,43.95
2018-05-02T01:26:04.293Z,43.95
2018-05-02T01:27:04.304Z,44.05
2018-05-02T01:28:04.323Z,44.22
2018-05-02T01:29:04.355Z,44.34
2018-05-02T01:30:04.374Z,44.15
2018-05-02T01:31:04.389Z,44.53
2018-05-02T01:32:04.674Z,44.41
2018-05-02T01:33:04.424Z,44.34
2018-05-02T01:34:04.447Z,44.41
2018-05-02T01:35:04.465Z,44.53
2018-05-02T01:36:04.494Z,44.12
2018-05-02T01:37:04.784Z,44.51
2018-05-02T01:38:04.508Z,44.51
2018-05-02T01:39:04.537Z,44.51
2018-05-02T01:40:04.836Z,44.51
2018-05-02T01:41:04.856Z,44.51
2018-05-02T01:42:04.862Z,44.6
2018-05-02T01:43:04.895Z,44.7
2018-05-02T01:44:04.915Z,44.7
2018-05-02T01:45:04.637Z,44.6
2018-05-02T01:46:04.949Z,44.7
2018-05-02T01:47:04.971Z,44.6
2018-05-02T01:48:04.969Z,44.7
2018-05-02T01:49:04.983Z,44.6
2018-05-02T01:50:05.027Z,44.79
2018-05-02T01:51:05.032Z,44.98
2018-05-02T01:52:05.051Z,44.89
2018-05-02T01:53:05.072Z,44.89
2018-05-02T01:54:04.797Z,44.79
2018-05-02T01:55:04.822Z,44.98
2018-05-02T01:56:05.114Z,45.08
2018-05-02T01:57:04.865Z,45.17
2018-05-02T01:58:05.167Z,44.98
2018-05-02T01:59:05.169Z,45.17
2018-05-02T02:00:04.903Z,45.27
2018-05-02T02:01:04.935Z,45.27
2018-05-02T02:02:05.216Z,44.98
2018-05-02T02:03:05.254Z,45.17
2018-05-02T02:04:05.276Z,45.27
2018-05-02T02:05:05.004Z,45.17
2018-05-02T02:06:05.304Z,45.17
2018-05-02T02:07:05.313Z,45.25
2018-05-02T02:08:05.347Z,45.46
2018-05-02T02:09:05.080Z,45.27
2018-05-02T02:10:05.444Z,45.37
2018-05-02T02:11:05.384Z,45.37
2018-05-02T02:12:05.420Z,45.56
2018-05-02T02:13:05.416Z,45.53
2018-05-02T02:14:05.450Z,45.43
2018-05-02T02:15:05.479Z,45.56
2018-05-02T02:16:05.474Z,45.56
2018-05-02T02:17:05.508Z,45.63
2018-05-02T02:18:05.523Z,45.65
2018-05-02T02:19:05.260Z,45.65
2018-05-02T02:20:05.276Z,45.63
2018-05-02T02:21:05.277Z,45.65
2018-05-02T02:22:05.596Z,45.92
2018-05-02T02:23:05.320Z,45.82
2018-05-02T02:24:05.341Z,45.82
2018-05-02T02:25:05.641Z,45.84
2018-05-02T02:26:05.663Z,45.53
2018-05-02T02:27:05.405Z,45.92
2018-05-02T02:28:05.692Z,45.92
2018-05-02T02:29:05.708Z,45.82
2018-05-02T02:30:05.737Z,46.11
2018-05-02T02:31:05.734Z,46.11
2018-05-02T02:32:05.479Z,46.01
2018-05-02T02:33:05.785Z,45.92
2018-05-02T02:34:05.925Z,46.01
2018-05-02T02:35:05.821Z,46.01
2018-05-02T02:36:05.832Z,46.01
2018-05-02T02:37:05.853Z,46.3
2018-05-02T02:38:05.880Z,46.39
2018-05-02T02:39:05.905Z,45.92
2018-05-02T02:40:05.638Z,46.11
2018-05-02T02:41:05.640Z,46.2
2018-05-02T02:42:05.934Z,46.58
2018-05-02T02:43:05.672Z,46.11
2018-05-02T02:44:05.708Z,46.2
2018-05-02T02:45:05.989Z,46.68
2018-05-02T02:46:06.012Z,46.39
2018-05-02T02:47:06.020Z,46.39
2018-05-02T02:48:05.779Z,46.39
2018-05-02T02:49:06.064Z,46.48
2018-05-02T02:50:06.074Z,46.48
2018-05-02T02:51:06.092Z,46.77
2018-05-02T02:52:05.829Z,46.48
2018-05-02T02:53:05.854Z,46.68
2018-05-02T02:54:06.174Z,46.39
2018-05-02T02:55:05.897Z,46.87
2018-05-02T02:56:06.202Z,46.58
2018-05-02T02:57:06.248Z,46.77
2018-05-02T02:58:05.951Z,46.97
2018-05-02T02:59:06.245Z,46.39
2018-05-02T03:00:06.247Z,47.25
2018-05-02T03:01:06.282Z,47.06
2018-05-02T03:02:06.341Z,46.77
2018-05-02T03:03:06.328Z,46.97
2018-05-02T03:04:06.323Z,47.06
2018-05-02T03:05:06.078Z,46.68
2018-05-02T03:06:06.361Z,47.06
2018-05-02T03:07:06.389Z,47.25
2018-05-02T03:08:06.403Z,47.16
2018-05-02T03:09:06.438Z,47.06
2018-05-02T03:10:06.460Z,47.34
2018-05-02T03:11:06.466Z,46.87
2018-05-02T03:12:06.195Z,47.44
2018-05-02T03:13:06.478Z,47.34
2018-05-02T03:14:06.233Z,47.44
2018-05-02T03:15:06.545Z,47.44
2018-05-02T03:16:06.533Z,47.54
2018-05-02T03:17:06.563Z,47.44
2018-05-02T03:18:06.568Z,47.34
2018-05-02T03:19:06.603Z,47.44
2018-05-02T03:20:06.603Z,47.44
2018-05-02T03:21:06.352Z,47.82
2018-05-02T03:22:06.632Z,48.02
2018-05-02T03:23:06.654Z,47.73
2018-05-02T03:24:06.673Z,48.11
2018-05-02T03:25:06.780Z,47.82
2018-05-02T03:26:06.432Z,47.92
2018-05-02T03:27:06.902Z,47.92
2018-05-02T03:28:06.742Z,47.92
2018-05-02T03:29:06.490Z,47.82
2018-05-02T03:30:06.776Z,47.82
2018-05-02T03:31:06.789Z,47.92
2018-05-02T03:32:06.876Z,47.92
2018-05-02T03:33:06.828Z,47.82
2018-05-02T03:34:06.564Z,47.82
2018-05-02T03:35:06.878Z,47.92
2018-05-02T03:36:06.945Z,47.92
2018-05-02T03:37:06.622Z,47.8
2018-05-02T03:38:06.915Z,47.82
2018-05-02T03:39:06.927Z,47.92
2018-05-02T03:40:06.670Z,47.92
2018-05-02T03:41:06.687Z,48.02
2018-05-02T03:42:07.000Z,47.73
2018-05-02T03:43:07.009Z,48.02
2018-05-02T03:44:07.007Z,47.82
2018-05-02T03:45:07.052Z,47.82
2018-05-02T03:46:06.773Z,47.71
2018-05-02T03:47:07.064Z,48.3
2018-05-02T03:48:07.080Z,47.63
2018-05-02T03:49:07.103Z,48.28
2018-05-02T03:50:07.134Z,48.28
2018-05-02T03:51:06.871Z,47.61
2018-05-02T03:52:06.881Z,48.08
2018-05-02T03:53:07.331Z,48.08
2018-05-02T03:54:07.204Z,48.11
2018-05-02T03:55:07.225Z,47.89
2018-05-02T03:56:06.951Z,47.99
2018-05-02T03:57:07.256Z,48.08
2018-05-02T03:58:07.269Z,47.89
2018-05-02T03:59:07.288Z,47.99
2018-05-02T04:00:07.303Z,47.89
2018-05-02T04:01:07.312Z,47.89
2018-05-02T04:02:07.341Z,48.28
2018-05-02T04:03:07.355Z,48.08
2018-05-02T04:04:07.377Z,48.28
2018-05-02T04:05:07.377Z,48.08
2018-05-02T04:06:07.394Z,48.47
2018-05-02T04:07:07.130Z,48.28
2018-05-02T04:08:07.431Z,48.18
2018-05-02T04:09:07.466Z,48.18
2018-05-02T04:10:07.465Z,48.18
2018-05-02T04:11:07.207Z,48.28
2018-05-02T04:12:07.219Z,48.28
2018-05-02T04:13:07.239Z,48.18
2018-05-02T04:14:07.261Z,48.37
2018-05-02T04:15:07.272Z,48.08
2018-05-02T04:16:07.292Z,48.08
2018-05-02T04:17:07.589Z,47.99
2018-05-02T04:18:07.321Z,48.18
2018-05-02T04:19:07.616Z,48.37
2018-05-02T04:20:07.656Z,48.57
2018-05-02T04:21:07.381Z,48.37
2018-05-02T04:22:07.689Z,48.28
2018-05-02T04:23:07.406Z,48.37
2018-05-02T04:24:07.718Z,48.37
2018-05-02T04:25:07.717Z,48.57
2018-05-02T04:26:07.485Z,48.37
2018-05-02T04:27:07.776Z,48.57
2018-05-02T04:28:07.492Z,49.04
2018-05-02T04:29:07.808Z,48.75
2018-05-02T04:30:07.815Z,48.08
2018-05-02T04:31:07.822Z,48.18
2018-05-02T04:32:07.839Z,48.47
2018-05-02T04:33:07.859Z,48.28
2018-05-02T04:34:08.133Z,48.57
2018-05-02T04:35:07.905Z,48.37
2018-05-02T04:36:07.940Z,48.18
2018-05-02T04:37:07.944Z,48.47
2018-05-02T04:38:07.946Z,48.18
2018-05-02T04:39:07.974Z,48.18
2018-05-02T04:40:07.696Z,48.18
2018-05-02T04:41:08.097Z,48.47
2018-05-02T04:42:08.029Z,48.57
2018-05-02T04:43:08.036Z,47.99
2018-05-02T04:44:07.768Z,48.28
2018-05-02T04:45:07.798Z,48.37
2018-05-02T04:46:08.090Z,48.18
2018-05-02T04:47:08.118Z,48.08
2018-05-02T04:48:07.835Z,48.08
2018-05-02T04:49:08.147Z,48.11
2018-05-02T04:50:07.867Z,48.21
2018-05-02T04:51:08.171Z,48.21
2018-05-02T04:52:08.201Z,48.11
2018-05-02T04:53:08.202Z,48.28
2018-05-02T04:54:08.216Z,48.11
2018-05-02T04:55:07.958Z,48.39
2018-05-02T04:56:07.974Z,48.11
2018-05-02T04:57:07.992Z,48.3
2018-05-02T04:58:08.013Z,48.3
2018-05-02T04:59:08.325Z,48.49
2018-05-02T05:00:08.341Z,48.11
2018-05-02T05:01:08.342Z,48.59
2018-05-02T05:02:08.372Z,48.3
2018-05-02T05:03:08.369Z,48.21
2018-05-02T05:04:08.108Z,48.02
2018-05-02T05:05:08.406Z,48.11
2018-05-02T05:06:08.163Z,48.11
2018-05-02T05:07:08.472Z,48.21
2018-05-02T05:08:08.466Z,48.21
2018-05-02T05:09:08.212Z,48.21
2018-05-02T05:10:08.213Z,48.21
2018-05-02T05:11:08.510Z,48.21
2018-05-02T05:12:08.554Z,48.39
2018-05-02T05:13:08.271Z,48.39
2018-05-02T05:14:08.591Z,48.21
2018-05-02T05:15:08.575Z,48.21
2018-05-02T05:16:08.324Z,48.3
2018-05-02T05:17:08.613Z,48.39
2018-05-02T05:18:08.690Z,48.3
2018-05-02T05:19:08.659Z,48.39
2018-05-02T05:20:08.660Z,48.49
2018-05-02T05:21:08.692Z,48.39
2018-05-02T05:22:08.714Z,48.88
2018-05-02T05:23:08.770Z,48.59
2018-05-02T05:24:08.743Z,49.07
2018-05-02T05:25:08.764Z,49.26
2018-05-02T05:26:08.489Z,48.88
2018-05-02T05:27:08.784Z,49.07
2018-05-02T05:28:08.899Z,49.07
2018-05-02T05:29:08.541Z,49.64
2018-05-02T05:30:08.836Z,50.02
2018-05-02T05:31:08.856Z,49.83
2018-05-02T05:32:08.889Z,49.44
2018-05-02T05:33:08.892Z,49.73
2018-05-02T05:34:08.626Z,49.95
2018-05-02T05:35:08.996Z,49.73
2018-05-02T05:36:08.950Z,50.49
2018-05-02T05:37:08.711Z,50.31
2018-05-02T05:38:08.749Z,50.12
2018-05-02T05:39:09.007Z,50.24
2018-05-02T05:40:09.011Z,50.43
2018-05-02T05:41:08.742Z,50.24
2018-05-02T05:42:09.043Z,50.62
2018-05-02T05:43:09.063Z,50.43
2018-05-02T05:44:09.088Z,50.52
2018-05-02T05:45:09.099Z,50.52
2018-05-02T05:46:09.110Z,50.24
2018-05-02T05:47:09.147Z,50.52
2018-05-02T05:48:09.213Z,50.14
2018-05-02T05:49:08.889Z,50.24
2018-05-02T05:50:08.920Z,50.43
2018-05-02T05:51:09.201Z,50.43
2018-05-02T05:52:09.211Z,50.52
2018-05-02T05:53:09.250Z,50.43
2018-05-02T05:54:09.601Z,50.33
2018-05-02T05:55:09.276Z,50.62
2018-05-02T05:56:09.298Z,50.62
2018-05-02T05:57:09.324Z,50.52
2018-05-02T05:58:09.334Z,50.33
2018-05-02T05:59:09.337Z,50.24
2018-05-02T06:00:09.075Z,50.24
2018-05-02T06:01:09.376Z,50.43
2018-05-02T06:02:09.395Z,50.52
2018-05-02T06:03:09.409Z,50.81
2018-05-02T06:04:09.150Z,50.9
2018-05-02T06:05:09.687Z,50.71
2018-05-02T06:06:09.190Z,50.81
2018-05-02T06:07:09.497Z,50.43
2018-05-02T06:08:09.501Z,50.74
2018-05-02T06:09:09.515Z,50.64
2018-05-02T06:10:09.592Z,50.74
2018-05-02T06:11:09.283Z,50.45
2018-05-02T06:12:09.588Z,50.35
2018-05-02T06:13:09.601Z,50.45
2018-05-02T06:14:09.612Z,50.93
2018-05-02T06:15:09.625Z,50.93
2018-05-02T06:16:09.640Z,50.93
2018-05-02T06:17:09.658Z,50.93
2018-05-02T06:18:09.689Z,50.64
2018-05-02T06:19:09.693Z,51.03
2018-05-02T06:20:09.769Z,50.93
2018-05-02T06:21:09.740Z,50.55
2018-05-02T06:22:09.741Z,50.93
2018-05-02T06:23:09.768Z,50.64
2018-05-02T06:24:09.510Z,50.64
2018-05-02T06:25:09.826Z,50.93
2018-05-02T06:26:09.952Z,50.74
2018-05-02T06:27:09.554Z,50.35
2018-05-02T06:28:09.569Z,50.38
2018-05-02T06:29:09.878Z,50.35
2018-05-02T06:30:09.915Z,50.29
2018-05-02T06:31:09.925Z,50.48
2018-05-02T06:32:09.638Z,50.38
2018-05-02T06:33:09.937Z,50.76
2018-05-02T06:34:09.968Z,50.38
2018-05-02T06:35:09.988Z,50.29
2018-05-02T06:36:09.996Z,50.57
2018-05-02T06:37:10.007Z,50.38
2018-05-02T06:38:10.052Z,50.48
2018-05-02T06:39:10.059Z,50.57
2018-05-02T06:40:10.063Z,50.19
2018-05-02T06:41:09.812Z,50.38
2018-05-02T06:42:10.105Z,50.67
2018-05-02T06:43:10.155Z,50.57
2018-05-02T06:44:09.853Z,50.48
2018-05-02T06:45:09.885Z,50.38
2018-05-02T06:46:10.182Z,50.29
2018-05-02T06:47:10.205Z,50.19
2018-05-02T06:48:10.212Z,50.09
2018-05-02T06:49:10.352Z,50.57
2018-05-02T06:50:10.295Z,50.19
2018-05-02T06:51:10.274Z,49.93
2018-05-02T06:52:10.300Z,49.74
2018-05-02T06:53:10.303Z,50.31
2018-05-02T06:54:10.314Z,49.84
2018-05-02T06:55:10.340Z,49.93
2018-05-02T06:56:10.352Z,50.02
2018-05-02T06:57:10.393Z,50.5
2018-05-02T06:58:10.393Z,50.31
2018-05-02T06:59:10.143Z,49.45
2018-05-02T07:00:10.429Z,49.26
2018-05-02T07:01:10.440Z,49.26
2018-05-02T07:02:10.474Z,49.93
2018-05-02T07:03:10.205Z,49.55
2018-05-02T07:04:10.507Z,49.93
2018-05-02T07:05:10.520Z,49.55
2018-05-02T07:06:10.551Z,49.07
2018-05-02T07:07:10.620Z,49.16
2018-05-02T07:08:10.582Z,48.97
2018-05-02T07:09:10.605Z,49.07
2018-05-02T07:10:10.608Z,49.19
2018-05-02T07:11:10.638Z,49.29
2018-05-02T07:12:10.650Z,49.48
2018-05-02T07:13:10.671Z,49
2018-05-02T07:14:10.695Z,48.9
2018-05-02T07:15:10.695Z,48.52
2018-05-02T07:16:10.737Z,48.33
2018-05-02T07:17:10.461Z,48.33
2018-05-02T07:18:10.474Z,48.13
2018-05-02T07:19:10.497Z,47.75
2018-05-02T07:20:10.795Z,48.42
2018-05-02T07:21:10.814Z,47.94
2018-05-02T07:22:10.825Z,47.75
2018-05-02T07:23:10.861Z,47.85
2018-05-02T07:24:10.591Z,47.47
2018-05-02T07:25:10.901Z,47.56
2018-05-02T07:26:10.920Z,47.68
2018-05-02T07:27:10.920Z,47.56
2018-05-02T07:28:10.947Z,47.49
2018-05-02T07:29:10.956Z,47.49
2018-05-02T07:30:11.024Z,47.2
2018-05-02T07:31:11.010Z,47.11
2018-05-02T07:32:11.016Z,47.3
2018-05-02T07:33:11.237Z,46.72
2018-05-02T07:34:11.054Z,47.2
2018-05-02T07:35:11.070Z,46.62
2018-05-02T07:36:10.815Z,46.62
2018-05-02T07:37:10.844Z,46.53
2018-05-02T07:38:10.856Z,46.34
2018-05-02T07:39:11.166Z,46.25
2018-05-02T07:40:11.308Z,45.76
2018-05-02T07:41:11.204Z,45.38
2018-05-02T07:42:11.062Z,45.48
2018-05-02T07:43:11.247Z,45.19
2018-05-02T07:44:11.241Z,45.19
2018-05-02T07:45:11.278Z,45.21
2018-05-02T07:46:11.279Z,45.21
2018-05-02T07:47:11.310Z,45.29
2018-05-02T07:48:11.335Z,45.4
2018-05-02T07:49:11.059Z,45.4
2018-05-02T07:50:11.123Z,45.59
2018-05-02T07:51:11.093Z,45.59
2018-05-02T07:52:11.412Z,45.79
2018-05-02T07:53:11.144Z,45.59
2018-05-02T07:54:11.154Z,45.69
2018-05-02T07:55:11.452Z,45.5
2018-05-02T07:56:11.488Z,45.5
2018-05-02T07:57:11.490Z,45.5
2018-05-02T07:58:11.521Z,45.4
2018-05-02T07:59:11.246Z,45.31
2018-05-02T08:00:11.563Z,45.31
2018-05-02T08:01:11.283Z,45.31
2018-05-02T08:02:11.586Z,45.31
2018-05-02T08:03:11.602Z,45.12
2018-05-02T08:04:11.635Z,44.64
2018-05-02T08:05:11.367Z,44.54
2018-05-02T08:06:11.658Z,44.26
2018-05-02T08:07:11.676Z,44.54
2018-05-02T08:08:11.721Z,44.54
2018-05-02T08:09:11.816Z,44.35
2018-05-02T08:10:11.757Z,44.18
2018-05-02T08:11:11.935Z,44.18
2018-05-02T08:12:11.793Z,44.27
2018-05-02T08:13:11.520Z,44.27
2018-05-02T08:14:11.835Z,43.99
2018-05-02T08:15:11.554Z,43.8
2018-05-02T08:16:11.573Z,43.51
2018-05-02T08:17:11.870Z,43.7
2018-05-02T08:18:11.908Z,43.51
2018-05-02T08:19:11.911Z,43.8
2018-05-02T08:20:11.947Z,43.7
2018-05-02T08:21:11.956Z,43.7
2018-05-02T08:22:12.144Z,43.51
2018-05-02T08:23:11.995Z,43.6
2018-05-02T08:24:12.010Z,43.32
2018-05-02T08:25:12.038Z,43.23
2018-05-02T08:26:12.056Z,43.32
2018-05-02T08:27:12.083Z,43.13
2018-05-02T08:28:12.107Z,43.51
2018-05-02T08:29:12.107Z,43.6
2018-05-02T08:30:12.150Z,43.51
2018-05-02T08:31:12.143Z,43.23
2018-05-02T08:32:12.180Z,43.13
2018-05-02T08:33:11.916Z,43.23
2018-05-02T08:34:11.921Z,43.13
2018-05-02T08:35:12.238Z,43.51
2018-05-02T08:36:11.976Z,42.94
2018-05-02T08:37:12.279Z,43.6
2018-05-02T08:38:12.300Z,43.41
2018-05-02T08:39:12.298Z,43.51
2018-05-02T08:40:12.043Z,42.94
2018-05-02T08:41:12.058Z,43.23
2018-05-02T08:42:12.361Z,43.32
2018-05-02T08:43:12.377Z,43.32
2018-05-02T08:44:12.399Z,43.51
2018-05-02T08:45:12.444Z,42.94
2018-05-02T08:46:12.454Z,42.94
2018-05-02T08:47:12.475Z,43.51
2018-05-02T08:48:12.208Z,42.94
2018-05-02T08:49:12.516Z,43.03
2018-05-02T08:50:12.248Z,43.41
2018-05-02T08:51:12.537Z,43.23
2018-05-02T08:52:12.563Z,43.13
2018-05-02T08:53:12.589Z,43.03
2018-05-02T08:54:12.612Z,42.74
2018-05-02T08:55:12.614Z,42.94
2018-05-02T08:56:12.650Z,42.84
2018-05-02T08:57:12.678Z,42.74
2018-05-02T08:58:12.700Z,42.84
2018-05-02T08:59:12.693Z,42.46
2018-05-02T09:00:12.450Z,42.36
2018-05-02T09:01:12.749Z,42.65
2018-05-02T09:02:12.756Z,42.65
2018-05-02T09:03:12.781Z,42.65
2018-05-02T09:04:12.791Z,42.65
2018-05-02T09:05:12.548Z,42.55
2018-05-02T09:06:12.851Z,42.65
2018-05-02T09:07:12.869Z,41.97
2018-05-02T09:08:12.888Z,42.07
2018-05-02T09:09:12.906Z,42.27
2018-05-02T09:10:12.932Z,42.55
2018-05-02T09:11:12.710Z,42.65
2018-05-02T09:12:12.973Z,42.55
2018-05-02T09:13:12.966Z,42.46
2018-05-02T09:14:13.001Z,42.65
2018-05-02T09:15:13.009Z,42.55
2018-05-02T09:16:13.029Z,42.55
2018-05-02T09:17:13.049Z,42.67
2018-05-02T09:18:13.074Z,42.46
2018-05-02T09:19:13.103Z,42.55
2018-05-02T09:20:13.113Z,42.57
2018-05-02T09:21:13.197Z,42.67
2018-05-02T09:22:13.173Z,42.29
2018-05-02T09:23:13.173Z,42.29
2018-05-02T09:24:13.191Z,42.19
2018-05-02T09:25:13.229Z,42.19
2018-05-02T09:26:12.959Z,42.29
2018-05-02T09:27:13.250Z,42.38
2018-05-02T09:28:13.285Z,42.38
2018-05-02T09:29:13.305Z,42.29
2018-05-02T09:30:13.308Z,42.29
2018-05-02T09:31:13.050Z,42.19
2018-05-02T09:32:13.351Z,42.1
2018-05-02T09:33:13.088Z,42
2018-05-02T09:34:13.384Z,41.9
2018-05-02T09:35:13.412Z,41.9
2018-05-02T09:36:13.481Z,41.8
2018-05-02T09:37:13.168Z,42.19
2018-05-02T09:38:13.506Z,42
2018-05-02T09:39:13.506Z,42.1
2018-05-02T09:40:13.508Z,42
2018-05-02T09:41:13.258Z,41.71
2018-05-02T09:42:13.561Z,41.8
2018-05-02T09:43:13.564Z,41.71
2018-05-02T09:44:13.801Z,41.63
2018-05-02T09:45:13.620Z,41.61
2018-05-02T09:46:13.692Z,41.25
2018-05-02T09:47:13.644Z,41.16
2018-05-02T09:48:13.389Z,41.06
2018-05-02T09:49:13.701Z,40.96
2018-05-02T09:50:13.711Z,41.25
2018-05-02T09:51:13.741Z,41.06
2018-05-02T09:52:13.762Z,41.16
2018-05-02T09:53:13.767Z,40.77
2018-05-02T09:54:13.515Z,40.96
2018-05-02T09:55:13.831Z,40.48
2018-05-02T09:56:13.840Z,40.39
2018-05-02T09:57:13.862Z,40.1
2018-05-02T09:58:14.012Z,40.1
2018-05-02T09:59:13.907Z,40
2018-05-02T10:00:13.924Z,40.1
2018-05-02T10:01:13.646Z,39.91
2018-05-02T10:02:13.966Z,40
2018-05-02T10:03:13.689Z,40.39
2018-05-02T10:04:13.988Z,40.77
2018-05-02T10:05:13.731Z,40.29
2018-05-02T10:06:14.037Z,40.2
2018-05-02T10:07:13.777Z,40.58
2018-05-02T10:08:14.088Z,40.39
2018-05-02T10:09:13.817Z,40.1
2018-05-02T10:10:14.116Z,40
2018-05-02T10:11:13.858Z,39.81
2018-05-02T10:12:14.171Z,39.62
2018-05-02T10:13:14.200Z,39.91
2018-05-02T10:14:14.191Z,39.91
2018-05-02T10:15:14.212Z,39.91
2018-05-02T10:16:14.261Z,40.39
2018-05-02T10:17:13.989Z,40.48
2018-05-02T10:18:14.287Z,40.87
2018-05-02T10:19:14.307Z,40.77
2018-05-02T10:20:14.331Z,40.77
2018-05-02T10:21:14.339Z,40.67
2018-05-02T10:22:14.080Z,40.96
2018-05-02T10:23:14.387Z,41.16
2018-05-02T10:24:14.402Z,41.16
2018-05-02T10:25:14.436Z,41.54
2018-05-02T10:26:14.626Z,41.06
2018-05-02T10:27:14.478Z,40.96
2018-05-02T10:28:14.497Z,40.87
2018-05-02T10:29:14.510Z,41.35
2018-05-02T10:30:14.550Z,41.93
2018-05-02T10:31:14.555Z,41.63
2018-05-02T10:32:14.565Z,41.54
2018-05-02T10:33:14.582Z,41.63
2018-05-02T10:34:14.609Z,41.93
2018-05-02T10:35:14.637Z,41.83
2018-05-02T10:36:14.646Z,41.63
2018-05-02T10:37:14.664Z,41.73
2018-05-02T10:38:14.695Z,41.73
2018-05-02T10:39:14.702Z,41.54
2018-05-02T10:40:14.749Z,41.63
2018-05-02T10:41:14.757Z,41.83
2018-05-02T10:42:14.780Z,41.63
2018-05-02T10:43:15.012Z,41.83
2018-05-02T10:44:14.820Z,41.73
2018-05-02T10:45:14.830Z,41.73
2018-05-02T10:46:14.859Z,41.83
2018-05-02T10:47:14.865Z,41.83
2018-05-02T10:48:14.884Z,41.63
2018-05-02T10:49:14.918Z,41.44
2018-05-02T10:51:28.218Z,41.63
2018-05-02T10:52:28.524Z,41.63
2018-05-02T10:53:28.548Z,41.63
2018-05-02T10:54:28.281Z,41.73
2018-05-02T10:55:28.589Z,41.25
2018-05-02T10:56:28.325Z,41.35
2018-05-02T10:57:28.625Z,40.87
2018-05-02T10:58:28.362Z,41.25
2018-05-02T10:59:28.675Z,41.06
2018-05-02T11:00:28.695Z,40.96
2018-05-02T11:01:28.475Z,41.06
2018-05-02T11:02:28.445Z,41.16
2018-05-02T11:03:28.746Z,40.96
2018-05-02T11:04:28.783Z,40.96
2018-05-02T11:05:28.504Z,41.06
2018-05-02T11:06:28.808Z,41.16
2018-05-02T11:07:28.830Z,40.96
2018-05-02T11:08:29.077Z,41.17
2018-05-02T11:09:28.584Z,40.99
2018-05-02T11:10:28.606Z,40.79
2018-05-02T11:11:28.626Z,40.6
2018-05-02T11:12:28.932Z,40.79
2018-05-02T11:13:28.956Z,40.31
2018-05-02T11:14:28.686Z,40.41
2018-05-02T11:15:28.992Z,39.83
2018-05-02T11:16:29.015Z,40.05
2018-05-02T11:17:29.039Z,39.95
2018-05-02T11:18:29.060Z,40.23
2018-05-02T11:19:28.790Z,39.85
2018-05-02T11:20:29.097Z,39.66
2018-05-02T11:21:29.115Z,39.47
2018-05-02T11:22:29.181Z,39.47
2018-05-02T11:23:29.157Z,39.28
2018-05-02T11:24:29.176Z,39.08
2018-05-02T11:25:29.202Z,39.11
2018-05-02T11:26:29.228Z,38.91
2018-05-02T11:27:28.957Z,38.81
2018-05-02T11:28:29.014Z,38.53
2018-05-02T11:29:29.293Z,38.62
2018-05-02T11:30:29.305Z,38.24
2018-05-02T11:31:29.091Z,38.34
2018-05-02T11:32:29.348Z,38.07
2018-05-02T11:33:29.365Z,38.16
2018-05-02T11:34:29.172Z,37.97
2018-05-02T11:35:29.408Z,37.59
2018-05-02T11:36:29.431Z,37.39
2018-05-02T11:37:29.451Z,37.97
2018-05-02T11:38:29.471Z,37.2
2018-05-02T11:39:29.491Z,36.83
2018-05-02T11:40:29.518Z,36.54
2018-05-02T11:41:29.547Z,36.83
2018-05-02T11:42:29.558Z,36.64
2018-05-02T11:43:29.580Z,36.35
2018-05-02T11:44:29.315Z,36.45
2018-05-02T11:45:29.337Z,36.37
2018-05-02T11:46:29.642Z,36.56
2018-05-02T11:47:29.667Z,36.08
2018-05-02T11:48:29.459Z,36.37
2018-05-02T11:49:29.425Z,36.27
2018-05-02T11:50:29.446Z,35.7
2018-05-02T11:51:29.470Z,35.5
2018-05-02T11:52:29.776Z,35.24
2018-05-02T11:53:29.795Z,35.62
2018-05-02T11:54:29.819Z,35.14
2018-05-02T11:55:29.843Z,35.42
2018-05-02T11:56:29.858Z,35.24
2018-05-02T11:57:29.596Z,35.04
2018-05-02T11:58:29.619Z,34.96
2018-05-02T11:59:29.929Z,35.06
2018-05-02T12:00:29.946Z,34.48
2018-05-02T12:01:29.689Z,34.48
2018-05-02T12:02:30.011Z,34.29
2018-05-02T12:03:29.797Z,34.19
2018-05-02T12:04:30.035Z,34.29
2018-05-02T12:05:30.060Z,34.11
2018-05-02T12:06:30.078Z,34
2018-05-02T12:07:30.100Z,34.3
2018-05-02T12:08:30.124Z,34.3
2018-05-02T12:09:30.143Z,34.01
2018-05-02T12:10:30.356Z,34.11
2018-05-02T12:11:29.905Z,34.01
2018-05-02T12:12:29.931Z,33.63
2018-05-02T12:13:30.234Z,33.63
2018-05-02T12:14:29.974Z,33.74
2018-05-02T12:15:30.285Z,33.65
2018-05-02T12:16:30.300Z,33.74
2018-05-02T12:17:30.325Z,33.74
2018-05-02T12:18:30.349Z,33.65
2018-05-02T12:19:30.366Z,33.07
2018-05-02T12:20:30.106Z,33.26
2018-05-02T12:21:30.130Z,33.55
2018-05-02T12:22:30.153Z,32.87
2018-05-02T12:23:30.174Z,32.97
2018-05-02T12:24:30.484Z,32.87
2018-05-02T12:25:30.506Z,33.36
2018-05-02T12:26:30.527Z,32.79
2018-05-02T12:27:30.556Z,32.89
2018-05-02T12:28:30.288Z,32.7
2018-05-02T12:29:30.599Z,32.41
2018-05-02T12:30:30.624Z,32.99
2018-05-02T12:31:30.642Z,32.51
2018-05-02T12:32:30.386Z,32.51
2018-05-02T12:33:30.701Z,32.41
2018-05-02T12:34:30.710Z,32.31
2018-05-02T12:35:30.958Z,32.52
2018-05-02T12:36:30.858Z,32.33
2018-05-02T12:37:30.495Z,32.52
2018-05-02T12:38:30.802Z,32.33
2018-05-02T12:39:30.827Z,32.23
2018-05-02T12:40:30.853Z,32.23
2018-05-02T12:41:30.872Z,32.71
2018-05-02T12:42:30.896Z,32.23
2018-05-02T12:43:30.918Z,32.43
2018-05-02T12:44:30.661Z,32.14
2018-05-02T12:45:30.966Z,32.04
2018-05-02T12:46:30.988Z,31.85
2018-05-02T12:47:31.011Z,31.96
2018-05-02T12:48:31.040Z,32.06
2018-05-02T12:49:31.062Z,31.57
2018-05-02T12:50:30.801Z,31.65
2018-05-02T12:51:30.821Z,31.28
2018-05-02T12:52:30.863Z,31.38
2018-05-02T12:53:31.155Z,31.38
2018-05-02T12:54:31.185Z,31.38
2018-05-02T12:55:31.199Z,31.57
2018-05-02T12:56:31.224Z,31.48